Harlowton, Montana
Current Conditions -  °F | °C
As of 8:54 AM on Wednesday 22 Oct 2014 (Local Time) from KLWT Reporting Station
Clear Clear  
Wind Chill: 38°   Ceiling: Unl
Heat Index: 44°   Visibility: 10mi
Dew Point: 32°   Wind: 13mph
Humidity: 63%   Direction: 240°WSW
Pressure: 29.97"   Gusts: NA
Location:  46.44°N, 109.83°W
Report Text: KLWT 221454Z AUTO 24011KT 10SM CLR 07/00 A2997 RMK AO2 SLP153 T00670000 53003
Loading
Personal Weather Stations






























Interactive Weather Map
Tropical Storm Tracking
New forecast layout! Learn more

10-Day Weather Forecast

Advertisements
Track Severe Weather on mobile